Check out our new BloomSky Weather System.

Active alerts


No alerts


Thunder radar  blitzortung!


Rain radar more information rain snow radar


Visit our other weather sites:

Template documentation
and downloads

And another site



Weather Underground History page Text

Daily Summary for February 7, 2018 Units:  Metric    English   Both
« Previous Day
Next Day »
Daily Weekly Monthly Yearly Custom
  High: Low: Average:
Temperature: -17.8 °C 5.3 °C 6.3 °C
Dew Point: -17.8 °C 4.5 °C 5.7 °C
Humidity: Humidity % 94 % 96 %
Wind Speed: 0 km/h 0 km/h 6.8 km/h
Wind Gust: 0 km/h - -
Wind:- - WNW
Pressure: 0 hPa 1017.2 hPa -
Precipitation: 13.72 mm    
Historical Graphs
 
 
Tabular Data for February 7, 2018
Time Temperature Dew Point Pressure Wind Wind Speed Wind Gust Humidity Rainfall Rate (Hourly)
-17.8 °C -17.8 °C 0 hPa Calm     Humidity % 0 mm
00:02 11.5 °C 10.9 °C 1017.5 hPa NW 3.2 km/h 11.3 km/h 96 % 0 mm
00:07 11.4 °C 10.8 °C 1017.2 hPa WNW 3.2 km/h 11.3 km/h 96 % 0 mm
00:12 11.3 °C 10.8 °C 1017.5 hPa NNW 8 km/h 12.9 km/h 97 % 0 mm
00:17 11.1 °C 10.6 °C 1017.5 hPa NW 9.7 km/h 14.5 km/h 97 % 0 mm
00:22 11 °C 10.5 °C 1017.5 hPa Calm   16.1 km/h 97 % 0 mm
00:27 10.8 °C 10.3 °C 1017.5 hPa NW 12.9 km/h 16.1 km/h 97 % 0 mm
00:32 10.6 °C 10.1 °C 1017.5 hPa NNW 8 km/h 17.7 km/h 97 % 0 mm
00:33 10.5 °C 10 °C 1017.5 hPa NW 11.3 km/h 17.7 km/h 97 % 0 mm
00:38 10.3 °C 9.8 °C 1017.8 hPa WNW 11.3 km/h 20.9 km/h 97 % 0 mm
00:43 10.2 °C 9.9 °C 1018.2 hPa WNW 6.4 km/h 20.9 km/h 98 % 0 mm
00:48 10.1 °C 9.8 °C 1018.2 hPa NNW 14.5 km/h 20.9 km/h 98 % 0 mm
00:53 9.9 °C 9.6 °C 1018.2 hPa NW 4.8 km/h 17.7 km/h 98 % 0 mm
00:58 9.9 °C 9.6 °C 1018.2 hPa NNW 9.7 km/h 19.3 km/h 98 % 0 mm
01:03 9.8 °C 9.5 °C 1018.2 hPa NNW 9.7 km/h 19.3 km/h 98 % 0 mm
01:08 9.7 °C 9.4 °C 1018.2 hPa NW 11.3 km/h 19.3 km/h 98 % 0 mm
01:13 9.7 °C 9.4 °C 1018.5 hPa NW 9.7 km/h 17.7 km/h 98 % 0 mm
01:18 9.7 °C 9.4 °C 1018.5 hPa North 8 km/h 14.5 km/h 98 % 0 mm
01:23 9.6 °C 9.3 °C 1018.5 hPa NW 6.4 km/h 14.5 km/h 98 % 0 mm
01:28 9.4 °C 9.1 °C 1018.5 hPa NW 12.9 km/h 12.9 km/h 98 % 0 mm
01:33 9.3 °C 9 °C 1018.5 hPa NW 6.4 km/h 19.3 km/h 98 % 0 mm
01:38 9.2 °C 8.9 °C 1018.5 hPa NNW 6.4 km/h 19.3 km/h 98 % 0 mm
01:43 9.1 °C 8.8 °C 1018.5 hPa NW 4.8 km/h 20.9 km/h 98 % 0 mm
01:48 9 °C 8.7 °C 1018.8 hPa NNW 4.8 km/h 20.9 km/h 98 % 0 mm
01:53 8.9 °C 8.6 °C 1018.5 hPa NNW 6.4 km/h 20.9 km/h 98 % 0 mm
01:58 9 °C 8.9 °C 1018.8 hPa NNW 9.7 km/h 17.7 km/h 99 % 0 mm
02:03 8.9 °C 8.6 °C 1018.8 hPa NNW 4.8 km/h 12.9 km/h 98 % 0 mm
02:08 8.8 °C 8.5 °C 1018.8 hPa NNW 11.3 km/h 14.5 km/h 98 % 0 mm
02:13 8.7 °C 8.4 °C 1018.8 hPa NW 6.4 km/h 17.7 km/h 98 % 0 mm
02:18 8.6 °C 8.3 °C 1019.2 hPa North 9.7 km/h 20.9 km/h 98 % 0 mm
02:23 8.4 °C 8 °C 1019.5 hPa NNW 14.5 km/h 20.9 km/h 97 % 0 mm
02:28 8.2 °C 7.8 °C 1019.2 hPa WNW 4.8 km/h 20.9 km/h 97 % 0 mm
02:33 8.2 °C 7.8 °C 1019.2 hPa North 3.2 km/h 20.9 km/h 97 % 0 mm
02:39 8.1 °C 7.7 °C 1019.5 hPa NNW 11.3 km/h 19.3 km/h 97 % 0 mm
02:44 8 °C 7.6 °C 1019.5 hPa NW 1.6 km/h 16.1 km/h 97 % 0 mm
02:49 7.8 °C 7.4 °C 1019.5 hPa NW 9.7 km/h 14.5 km/h 97 % 0 mm
02:54 7.7 °C 7.3 °C 1019.5 hPa NNW 11.3 km/h 19.3 km/h 97 % 0 mm
02:59 7.6 °C 7.2 °C 1019.9 hPa NNW 8 km/h 19.3 km/h 97 % 0 mm
03:04 7.4 °C 7 °C 1019.9 hPa WNW 6.4 km/h 19.3 km/h 97 % 0 mm
03:09 7.4 °C 7 °C 1019.9 hPa NNW 4.8 km/h 16.1 km/h 97 % 0 mm
03:14 7.3 °C 6.9 °C 1019.9 hPa NW 8 km/h 16.1 km/h 97 % 0 mm
03:19 7.2 °C 6.8 °C 1019.9 hPa WNW 8 km/h 16.1 km/h 97 % 0 mm
03:24 7.1 °C 6.7 °C 1019.9 hPa NNW 4.8 km/h 25.7 km/h 97 % 0 mm
03:29 6.9 °C 6.5 °C 1019.9 hPa NW 6.4 km/h 25.7 km/h 97 % 0 mm
03:34 6.9 °C 6.5 °C 1019.9 hPa NNW 4.8 km/h 25.7 km/h 97 % 0 mm
03:39 6.8 °C 6.4 °C 1019.9 hPa NNW 8 km/h 16.1 km/h 97 % 0 mm
03:44 6.7 °C 6.3 °C 1020.2 hPa NNW 8 km/h 14.5 km/h 97 % 0 mm
03:49 6.7 °C 6.3 °C 1020.2 hPa NW 6.4 km/h 16.1 km/h 97 % 0 mm
03:54 6.6 °C 6.2 °C 1020.5 hPa NW 8 km/h 19.3 km/h 97 % 0 mm
03:59 6.6 °C 6.2 °C 1020.5 hPa North 16.1 km/h 19.3 km/h 97 % 0 mm
04:04 6.5 °C 6.1 °C 1020.5 hPa NW 3.2 km/h 25.7 km/h 97 % 0 mm
04:09 6.5 °C 6.1 °C 1020.5 hPa WNW 3.2 km/h 25.7 km/h 97 % 0 mm
04:14 6.5 °C 6.1 °C 1020.5 hPa WNW 9.7 km/h 25.7 km/h 97 % 0 mm
04:19 6.5 °C 6.1 °C 1020.9 hPa NW 8 km/h 17.7 km/h 97 % 0 mm
04:24 6.6 °C 6.2 °C 1020.9 hPa NW 6.4 km/h 17.7 km/h 97 % 0 mm
04:29 6.5 °C 6.1 °C 1020.9 hPa NW 6.4 km/h 16.1 km/h 97 % 0 mm
04:35 6.4 °C 6 °C 1020.5 hPa Calm   17.7 km/h 97 % 0 mm
04:40 6.4 °C 6 °C 1020.9 hPa NW 3.2 km/h 17.7 km/h 97 % 0 mm
04:45 6.4 °C 6 °C 1020.9 hPa NW 8 km/h 17.7 km/h 97 % 0 mm
04:50 6.4 °C 6 °C 1020.9 hPa NW 12.9 km/h 14.5 km/h 97 % 0 mm
04:55 6.3 °C 5.9 °C 1021.2 hPa NNW 8 km/h 14.5 km/h 97 % 0 mm
05:00 6.3 °C 5.9 °C 1021.2 hPa NW 8 km/h 16.1 km/h 97 % 0 mm
05:05 6.3 °C 5.9 °C 1021.2 hPa NNW 11.3 km/h 22.5 km/h 97 % 0 mm
05:10 6.3 °C 5.9 °C 1021.2 hPa WNW 4.8 km/h 22.5 km/h 97 % 0 mm
05:15 6.3 °C 5.9 °C 1021.2 hPa NNW 9.7 km/h 22.5 km/h 97 % 0 mm
05:20 6.3 °C 5.9 °C 1021.2 hPa NW 4.8 km/h 12.9 km/h 97 % 0 mm
05:25 6.2 °C 5.8 °C 1021.2 hPa NW 6.4 km/h 12.9 km/h 97 % 0 mm
05:30 6.2 °C 5.8 °C 1021.2 hPa NNW 4.8 km/h 16.1 km/h 97 % 0 mm
05:35 6.2 °C 5.8 °C 1021.2 hPa NW 8 km/h 16.1 km/h 97 % 0.25 mm
05:40 6.2 °C 5.8 °C 1021.6 hPa NNE 4.8 km/h 16.1 km/h 97 % 0.25 mm
05:45 6.2 °C 5.8 °C 1021.6 hPa NW 8 km/h 14.5 km/h 97 % 0.25 mm
05:50 6.2 °C 5.8 °C 1021.6 hPa North 22.5 km/h 22.5 km/h 97 % 0.25 mm
05:55 6.2 °C 5.8 °C 1021.6 hPa NNW 8 km/h 22.5 km/h 97 % 0.25 mm
06:00 6.2 °C 5.8 °C 1021.6 hPa NW 4.8 km/h 22.5 km/h 97 % 0.25 mm
06:06 6.2 °C 5.8 °C 1021.9 hPa NNW 8 km/h 22.5 km/h 97 % 0.25 mm
06:11 6.2 °C 5.8 °C 1021.9 hPa NW 6.4 km/h 14.5 km/h 97 % 0.25 mm
06:16 6.1 °C 5.7 °C 1022.2 hPa NW 4.8 km/h 14.5 km/h 97 % 0.51 mm
06:21 6.1 °C 5.7 °C 1022.2 hPa NW 4.8 km/h 14.5 km/h 97 % 0.76 mm
06:26 5.9 °C 5.5 °C 1022.6 hPa NW 8 km/h 19.3 km/h 97 % 1.78 mm
06:31 5.8 °C 5.4 °C 1022.2 hPa NNW 6.4 km/h 22.5 km/h 97 % 1.78 mm
06:36 5.8 °C 5.4 °C 1022.2 hPa NW 6.4 km/h 22.5 km/h 97 % 1.52 mm
06:41 5.7 °C 5.3 °C 1022.6 hPa WNW 4.8 km/h 22.5 km/h 97 % 1.52 mm
06:46 5.7 °C 5.3 °C 1022.6 hPa North 16.1 km/h 17.7 km/h 97 % 1.52 mm
06:51 5.7 °C 5.3 °C 1022.6 hPa WNW 6.4 km/h 17.7 km/h 97 % 1.52 mm
06:56 5.7 °C 5.3 °C 1022.6 hPa North 11.3 km/h 17.7 km/h 97 % 1.52 mm
07:01 5.7 °C 5.3 °C 1022.9 hPa NNW 9.7 km/h 17.7 km/h 97 % 1.52 mm
07:06 5.7 °C 5.4 °C 1023.2 hPa West 3.2 km/h 17.7 km/h 98 % 1.52 mm
07:11 5.7 °C 5.4 °C 1023.6 hPa NNW 8 km/h 19.3 km/h 98 % 1.52 mm
07:16 5.8 °C 5.5 °C 1023.6 hPa WNW 11.3 km/h 19.3 km/h 98 % 1.27 mm
07:21 5.7 °C 5.3 °C 1023.6 hPa NW 12.9 km/h 20.9 km/h 97 % 1.02 mm
07:27 5.7 °C 5.3 °C 1023.2 hPa NNW 4.8 km/h 20.9 km/h 97 % 0 mm
07:29 5.7 °C 5.3 °C 1023.2 hPa NNW 9.7 km/h 20.9 km/h 97 % 0 mm
07:37 5.7 °C 5.3 °C 1021.9 hPa NE 6.4 km/h 29 km/h 97 % 0 mm
07:44 5.8 °C 5.4 °C 1022.2 hPa NNE 1.6 km/h 29 km/h 97 % 0 mm
07:49 5.9 °C 5.5 °C 1022.6 hPa NW 4.8 km/h 22.5 km/h 97 % 0 mm
07:54 5.9 °C 5.5 °C 1024.3 hPa NW 11.3 km/h 12.9 km/h 97 % 0 mm
07:59 6 °C 5.6 °C 1024.3 hPa NW 8 km/h 16.1 km/h 97 % 0 mm
08:04 5.9 °C 5.5 °C 1024.3 hPa NW 9.7 km/h 19.3 km/h 97 % 0.25 mm
08:09 5.9 °C 5.5 °C 1023.9 hPa NNW 12.9 km/h 19.3 km/h 97 % 0.51 mm
08:14 5.8 °C 5.4 °C 1024.3 hPa NW 4.8 km/h 19.3 km/h 97 % 1.02 mm
08:19 5.8 °C 5.4 °C 1024.3 hPa NW 8 km/h 19.3 km/h 97 % 1.78 mm
08:24 5.7 °C 5.3 °C 1023.6 hPa NW 9.7 km/h 19.3 km/h 97 % 3.81 mm
08:29 5.7 °C 5.3 °C 1023.9 hPa North 4.8 km/h 17.7 km/h 97 % 4.57 mm
08:34 5.7 °C 5.4 °C 1023.9 hPa North 1.6 km/h 17.7 km/h 98 % 5.08 mm
08:37 5.6 °C 5.3 °C 1023.2 hPa WNW 3.2 km/h 17.7 km/h 98 % 5.33 mm
08:42 5.6 °C 5.3 °C 1022.9 hPa NW 4.8 km/h 11.3 km/h 98 % 5.84 mm
08:52 5.5 °C 5.2 °C 1023.6 hPa WNW 1.6 km/h 14.5 km/h 98 % 5.84 mm
08:57 5.6 °C 5.3 °C 1023.6 hPa NNW 4.8 km/h 14.5 km/h 98 % 5.84 mm
09:02 5.5 °C 5.2 °C 1023.9 hPa NNE 17.7 km/h 17.7 km/h 98 % 5.59 mm
09:07 5.5 °C 5.2 °C 1024.3 hPa NNW 11.3 km/h 19.3 km/h 98 % 5.33 mm
09:12 5.5 °C 5.2 °C 1024.3 hPa NNW 4.8 km/h 19.3 km/h 98 % 4.83 mm
09:17 5.6 °C 5.3 °C 1024.6 hPa NW 3.2 km/h 19.3 km/h 98 % 4.06 mm
09:22 5.6 °C 5.3 °C 1024.9 hPa WNW 4.8 km/h 16.1 km/h 98 % 2.03 mm
09:27 5.6 °C 5.3 °C 1024.9 hPa NNW 4.8 km/h 14.5 km/h 98 % 1.02 mm
09:32 5.7 °C 5.4 °C 1024.9 hPa NW 9.7 km/h 14.5 km/h 98 % 1.02 mm
09:37 5.7 °C 5.4 °C 1024.9 hPa NNW 11.3 km/h 16.1 km/h 98 % 0.76 mm
09:42 5.7 °C 5.4 °C 1024.9 hPa NNW 4.8 km/h 16.1 km/h 98 % 0.25 mm
09:47 5.8 °C 5.5 °C 1024.6 hPa NNW 1.6 km/h 16.1 km/h 98 % 0.25 mm
09:52 5.9 °C 5.6 °C 1024.6 hPa NNE 6.4 km/h 12.9 km/h 98 % 0.25 mm
09:57 5.9 °C 5.6 °C 1024.6 hPa NW 11.3 km/h 16.1 km/h 98 % 0.25 mm
10:02 6 °C 5.7 °C 1024.9 hPa NNW 3.2 km/h 16.1 km/h 98 % 0.25 mm
10:07 6.1 °C 5.8 °C 1025.3 hPa North 1.6 km/h 16.1 km/h 98 % 0.25 mm
10:12 6.4 °C 6.3 °C 1025.6 hPa NNW 6.4 km/h 14.5 km/h 99 % 0.25 mm
10:17 6.3 °C 6 °C 1025.6 hPa NW 4.8 km/h 16.1 km/h 98 % 0.25 mm
10:22 6.4 °C 6.1 °C 1025.3 hPa NW 9.7 km/h 16.1 km/h 98 % 0.25 mm
10:27 6.3 °C 6 °C 1024.6 hPa NNW 14.5 km/h 16.1 km/h 98 % 0.25 mm
10:32 6.3 °C 6 °C 1024.9 hPa NNW 4.8 km/h 19.3 km/h 98 % 0 mm
10:37 6.3 °C 6 °C 1024.6 hPa NNW 8 km/h 19.3 km/h 98 % 0 mm
10:42 6.4 °C 6.1 °C 1024.9 hPa NNW 4.8 km/h 19.3 km/h 98 % 0 mm
10:47 6.5 °C 6.2 °C 1025.3 hPa NW 8 km/h 20.9 km/h 98 % 0 mm
10:52 6.4 °C 6 °C 1025.6 hPa NW 4.8 km/h 20.9 km/h 97 % 0 mm
10:57 6.5 °C 6.1 °C 1026 hPa NNW 8 km/h 20.9 km/h 97 % 0 mm
11:03 6.4 °C 6 °C 1026 hPa NW 6.4 km/h 19.3 km/h 97 % 0 mm
11:08 6.5 °C 6.1 °C 1026 hPa NW 11.3 km/h 12.9 km/h 97 % 0 mm
11:13 6.6 °C 6.2 °C 1026 hPa NNW 9.7 km/h 19.3 km/h 97 % 0 mm
11:18 6.6 °C 6.2 °C 1026 hPa NW 8 km/h 19.3 km/h 97 % 0 mm
11:23 6.7 °C 6.3 °C 1025.3 hPa North 11.3 km/h 19.3 km/h 97 % 0 mm
11:28 6.7 °C 6.1 °C 1024.9 hPa NW 6.4 km/h 16.1 km/h 96 % 0.51 mm
11:33 6.7 °C 6.3 °C 1025.3 hPa North 12.9 km/h 16.1 km/h 97 % 1.02 mm
11:38 6.8 °C 6.4 °C 1024.9 hPa North 3.2 km/h 20.9 km/h 97 % 1.02 mm
11:43 6.8 °C 6.2 °C 1024.9 hPa WNW 12.9 km/h 20.9 km/h 96 % 1.02 mm
11:48 6.7 °C 6.1 °C 1025.3 hPa NE 3.2 km/h 20.9 km/h 96 % 1.02 mm
11:53 6.7 °C 6.3 °C 1024.9 hPa NNE 9.7 km/h 20.9 km/h 97 % 1.02 mm
11:58 6.7 °C 6.1 °C 1025.3 hPa NNW 8 km/h 20.9 km/h 96 % 1.02 mm
12:03 6.7 °C 6.1 °C 1025.6 hPa NNW 6.4 km/h 14.5 km/h 96 % 1.02 mm
12:08 6.6 °C 6 °C 1025.6 hPa NNW 6.4 km/h 14.5 km/h 96 % 1.02 mm
12:13 6.6 °C 6 °C 1025.6 hPa NNW 8 km/h 19.3 km/h 96 % 1.02 mm
12:18 6.6 °C 5.9 °C 1026 hPa WNW 6.4 km/h 22.5 km/h 95 % 1.02 mm
12:23 6.4 °C 5.7 °C 1026 hPa NW 14.5 km/h 22.5 km/h 95 % 1.02 mm
12:28 6.4 °C 5.7 °C 1026 hPa NW 8 km/h 22.5 km/h 95 % 0.25 mm
12:33 6.4 °C 5.7 °C 1025.6 hPa WNW 8 km/h 20.9 km/h 95 % 0 mm
12:38 6.4 °C 5.7 °C 1025.6 hPa North 6.4 km/h 20.9 km/h 95 % 0 mm
12:43 6.4 °C 5.7 °C 1025.6 hPa NW 11.3 km/h 17.7 km/h 95 % 0 mm
12:48 6.3 °C 5.6 °C 1025.6 hPa NNW 11.3 km/h 16.1 km/h 95 % 0 mm
12:53 6.2 °C 5.5 °C 1026 hPa NNW 9.7 km/h 19.3 km/h 95 % 0 mm
12:58 6.1 °C 5.4 °C 1025.3 hPa NNE 8 km/h 19.3 km/h 95 % 0 mm
13:03 6.1 °C 5.4 °C 1025.6 hPa NNW 8 km/h 19.3 km/h 95 % 0 mm
13:08 6 °C 5.3 °C 1025.3 hPa NNE 11.3 km/h 17.7 km/h 95 % 0 mm
13:13 5.8 °C 5.1 °C 1026 hPa NNW 4.8 km/h 19.3 km/h 95 % 0 mm
13:18 5.8 °C 4.9 °C 1025.3 hPa North 9.7 km/h 19.3 km/h 94 % 0.25 mm
13:23 5.6 °C 4.9 °C 1025.6 hPa NW 6.4 km/h 22.5 km/h 95 % 0.51 mm
13:28 5.5 °C 4.9 °C 1025.6 hPa NW 9.7 km/h 22.5 km/h 96 % 1.02 mm
13:31 5.4 °C 4.8 °C 1026 hPa NW 9.7 km/h 22.5 km/h 96 % 3.3 mm
13:36 5.3 °C 4.7 °C 1024.9 hPa NW 8 km/h 19.3 km/h 96 % 4.57 mm
13:41 5.4 °C 5 °C 1024.3 hPa NNE 4.8 km/h 19.3 km/h 97 % 4.57 mm
13:47 5.4 °C 5 °C 1024.3 hPa West 4.8 km/h 19.3 km/h 97 % 4.57 mm
13:52 5.4 °C 5 °C 1024.6 hPa NW 4.8 km/h 16.1 km/h 97 % 4.57 mm
14:00 5.4 °C 5 °C 1024.6 hPa NNW 4.8 km/h 16.1 km/h 97 % 4.57 mm
14:05 5.3 °C 4.9 °C 1024.9 hPa NNW 3.2 km/h 14.5 km/h 97 % 4.57 mm
14:10 5.3 °C 4.9 °C 1026 hPa Calm   14.5 km/h 97 % 4.83 mm
14:14 5.3 °C 5 °C 1026 hPa Calm   14.5 km/h 98 % 4.83 mm
14:17 5.3 °C 5 °C 1026.3 hPa NW 3.2 km/h 14.5 km/h 98 % 4.57 mm
14:27 5.4 °C 5.1 °C 1024.9 hPa NW 6.4 km/h 11.3 km/h 98 % 3.81 mm
14:32 5.4 °C 5.1 °C 1024.9 hPa NNW 1.6 km/h 12.9 km/h 98 % 1.52 mm
14:37 5.5 °C 5.2 °C 1025.3 hPa North 6.4 km/h 16.1 km/h 98 % 0.25 mm
14:42 5.6 °C 5.3 °C 1024.6 hPa NNW 11.3 km/h 16.1 km/h 98 % 0.25 mm
14:47 5.7 °C 5.4 °C 1024.6 hPa NW 6.4 km/h 16.1 km/h 98 % 0.25 mm
14:52 5.8 °C 5.5 °C 1024.9 hPa NNW 9.7 km/h 19.3 km/h 98 % 0.25 mm
14:57 5.9 °C 5.6 °C 1024.9 hPa WSW 4.8 km/h 19.3 km/h 98 % 0.25 mm
15:02 5.9 °C 5.6 °C 1024.9 hPa NW 3.2 km/h 19.3 km/h 98 % 0.25 mm
15:07 5.9 °C 5.5 °C 1024.9 hPa NW 8 km/h 16.1 km/h 97 % 0.25 mm
15:12 5.8 °C 5.4 °C 1025.3 hPa North 11.3 km/h 14.5 km/h 97 % 0 mm
15:17 5.8 °C 5.4 °C 1025.3 hPa NNW 4.8 km/h 14.5 km/h 97 % 0 mm
15:22 5.8 °C 5.4 °C 1025.6 hPa NW 3.2 km/h 14.5 km/h 97 % 0 mm
15:27 5.8 °C 5.4 °C 1025.6 hPa WNW 12.9 km/h 14.5 km/h 97 % 0 mm
15:32 5.8 °C 5.2 °C 1025.3 hPa NW 8 km/h 16.1 km/h 96 % 0 mm
15:37 5.8 °C 5.2 °C 1026 hPa NNW 6.4 km/h 19.3 km/h 96 % 0 mm
15:42 5.8 °C 5.2 °C 1026 hPa NNW 9.7 km/h 19.3 km/h 96 % 0 mm
15:47 5.9 °C 5.3 °C 1025.6 hPa NW 3.2 km/h 19.3 km/h 96 % 0 mm
15:52 5.9 °C 5.3 °C 1026 hPa WNW 11.3 km/h 19.3 km/h 96 % 0 mm
15:57 5.8 °C 5.2 °C 1026 hPa NNW 3.2 km/h 19.3 km/h 96 % 0 mm
16:02 5.9 °C 5.3 °C 1026 hPa North 8 km/h 19.3 km/h 96 % 0 mm
16:07 5.8 °C 5.1 °C 1026 hPa NNW 11.3 km/h 19.3 km/h 95 % 0 mm
16:12 5.7 °C 5 °C 1026 hPa NNE 6.4 km/h 17.7 km/h 95 % 0 mm
16:17 5.7 °C 5 °C 1026.3 hPa NNW 11.3 km/h 17.7 km/h 95 % 0 mm
16:22 5.6 °C 4.9 °C 1026.3 hPa NW 3.2 km/h 17.7 km/h 95 % 0 mm
16:27 5.6 °C 4.9 °C 1026.6 hPa NNW 4.8 km/h 17.7 km/h 95 % 0 mm
16:32 5.6 °C 4.9 °C 1026.6 hPa NW 1.6 km/h 17.7 km/h 95 % 0 mm
16:37 5.6 °C 4.9 °C 1026.6 hPa North 9.7 km/h 17.7 km/h 95 % 0 mm
16:42 5.5 °C 4.8 °C 1026.6 hPa NE 6.4 km/h 16.1 km/h 95 % 0 mm
16:47 5.5 °C 4.8 °C 1027 hPa NW 9.7 km/h 17.7 km/h 95 % 0 mm
16:52 5.5 °C 4.8 °C 1027 hPa NE 6.4 km/h 17.7 km/h 95 % 0 mm
16:57 5.4 °C 4.7 °C 1027 hPa NNW 6.4 km/h 17.7 km/h 95 % 0 mm
17:02 5.5 °C 4.6 °C 1027 hPa NW 4.8 km/h 17.7 km/h 94 % 0 mm
17:07 5.5 °C 4.8 °C 1027 hPa North 6.4 km/h 19.3 km/h 95 % 0 mm
17:12 5.4 °C 4.5 °C 1027 hPa North 11.3 km/h 19.3 km/h 94 % 0 mm
17:17 5.4 °C 4.5 °C 1027 hPa NNE 3.2 km/h 19.3 km/h 94 % 0 mm
17:22 5.4 °C 4.5 °C 1027 hPa North 4.8 km/h 16.1 km/h 94 % 0 mm
17:27 5.5 °C 4.6 °C 1027 hPa North 11.3 km/h 16.1 km/h 94 % 0 mm
17:32 5.4 °C 4.5 °C 1027 hPa NNW 6.4 km/h 12.9 km/h 94 % 0 mm
17:37 5.4 °C 4.5 °C 1027 hPa NNW 4.8 km/h 17.7 km/h 94 % 0 mm
17:42 5.5 °C 4.6 °C 1027 hPa NNW 6.4 km/h 17.7 km/h 94 % 0 mm
17:47 5.5 °C 4.6 °C 1027.3 hPa NNW 4.8 km/h 17.7 km/h 94 % 0 mm
17:52 5.6 °C 4.7 °C 1027 hPa Calm   14.5 km/h 94 % 0 mm
17:57 5.7 °C 4.8 °C 1027 hPa NNW 4.8 km/h 14.5 km/h 94 % 0 mm
18:02 5.7 °C 4.8 °C 1027.3 hPa NW 3.2 km/h 14.5 km/h 94 % 0 mm
18:08 5.7 °C 4.8 °C 1027.3 hPa ENE 4.8 km/h 14.5 km/h 94 % 0 mm
18:13 5.6 °C 4.7 °C 1027.3 hPa NNW 6.4 km/h 14.5 km/h 94 % 0 mm
18:18 5.7 °C 4.8 °C 1027.3 hPa WNW 3.2 km/h 11.3 km/h 94 % 0 mm
18:23 5.7 °C 4.8 °C 1027.7 hPa NW 3.2 km/h 11.3 km/h 94 % 0 mm
18:28 5.7 °C 4.8 °C 1027.7 hPa NW 1.6 km/h 12.9 km/h 94 % 0 mm
18:33 5.7 °C 4.8 °C 1027.7 hPa WNW 1.6 km/h 12.9 km/h 94 % 0 mm
18:38 5.7 °C 4.8 °C 1027.7 hPa Calm   14.5 km/h 94 % 0 mm
18:43 5.7 °C 4.8 °C 1027.7 hPa NNW 6.4 km/h 14.5 km/h 94 % 0 mm
18:48 5.7 °C 4.8 °C 1028 hPa NNW 3.2 km/h 14.5 km/h 94 % 0 mm
18:53 5.6 °C 4.7 °C 1028 hPa NNW 6.4 km/h 14.5 km/h 94 % 0 mm
18:58 5.6 °C 4.7 °C 1028 hPa NW 9.7 km/h 16.1 km/h 94 % 0 mm
19:03 5.5 °C 4.6 °C 1028 hPa North 1.6 km/h 17.7 km/h 94 % 0 mm
19:08 5.5 °C 4.6 °C 1028.3 hPa North 4.8 km/h 17.7 km/h 94 % 0 mm
19:13 5.5 °C 4.6 °C 1028.3 hPa NW 16.1 km/h 17.7 km/h 94 % 0 mm
19:18 5.5 °C 4.6 °C 1028.3 hPa NE 8 km/h 19.3 km/h 94 % 0 mm
19:23 5.5 °C 4.6 °C 1028.3 hPa NW 6.4 km/h 19.3 km/h 94 % 0 mm
19:28 5.4 °C 4.5 °C 1028.3 hPa NNW 6.4 km/h 22.5 km/h 94 % 0 mm
19:33 5.5 °C 4.6 °C 1028.7 hPa NE 12.9 km/h 22.5 km/h 94 % 0 mm
19:38 5.5 °C 4.6 °C 1028.7 hPa NW 9.7 km/h 22.5 km/h 94 % 0 mm
19:43 5.5 °C 4.6 °C 1028.7 hPa West 1.6 km/h 19.3 km/h 94 % 0 mm
19:48 5.5 °C 4.6 °C 1028.7 hPa NNW 8 km/h 19.3 km/h 94 % 0 mm
19:53 5.5 °C 4.6 °C 1028.7 hPa NW 1.6 km/h 19.3 km/h 94 % 0 mm
19:58 5.5 °C 4.6 °C 1028.7 hPa NNW 1.6 km/h 14.5 km/h 94 % 0 mm
20:00 5.5 °C 4.6 °C 1028.7 hPa WNW 3.2 km/h 14.5 km/h 94 % 0 mm
20:05 5.4 °C 4.5 °C 1028.7 hPa West 3.2 km/h 19.3 km/h 94 % 0 mm
20:10 5.4 °C 4.5 °C 1028.7 hPa NNW 6.4 km/h 19.3 km/h 94 % 0 mm
20:15 5.5 °C 4.6 °C 1029 hPa NW 8 km/h 19.3 km/h 94 % 0 mm
20:20 5.6 °C 4.7 °C 1029 hPa NW 1.6 km/h 14.5 km/h 94 % 0 mm
20:25 5.5 °C 4.6 °C 1029 hPa NNE 6.4 km/h 14.5 km/h 94 % 0 mm
20:30 5.5 °C 4.6 °C 1029.3 hPa NW 6.4 km/h 14.5 km/h 94 % 0 mm
20:35 5.4 °C 4.5 °C 1029 hPa NNW 9.7 km/h 17.7 km/h 94 % 0 mm
20:40 5.4 °C 4.5 °C 1029 hPa WNW 9.7 km/h 19.3 km/h 94 % 0 mm
20:45 5.4 °C 4.5 °C 1029.3 hPa NNW 3.2 km/h 19.3 km/h 94 % 0 mm
20:50 5.4 °C 4.5 °C 1029.3 hPa NNW 1.6 km/h 19.3 km/h 94 % 0 mm
20:55 5.4 °C 4.5 °C 1029 hPa North 9.7 km/h 17.7 km/h 94 % 0 mm
21:00 5.4 °C 4.5 °C 1029.3 hPa NNW 12.9 km/h 17.7 km/h 94 % 0 mm
21:05 5.4 °C 4.5 °C 1029 hPa NNW 6.4 km/h 20.9 km/h 94 % 0 mm
21:10 5.4 °C 4.5 °C 1029 hPa North 6.4 km/h 20.9 km/h 94 % 0 mm
21:15 5.4 °C 4.5 °C 1029 hPa NNW 4.8 km/h 20.9 km/h 94 % 0 mm
21:20 5.4 °C 4.5 °C 1029 hPa NNE 4.8 km/h 16.1 km/h 94 % 0 mm
21:25 5.4 °C 4.5 °C 1029 hPa NNE 4.8 km/h 12.9 km/h 94 % 0 mm
21:30 5.4 °C 4.7 °C 1029 hPa North 4.8 km/h 11.3 km/h 95 % 0 mm
21:35 5.4 °C 4.7 °C 1029 hPa North 8 km/h 9.7 km/h 95 % 0 mm
21:40 5.4 °C 4.7 °C 1029 hPa North 3.2 km/h 9.7 km/h 95 % 0 mm
21:45 5.5 °C 4.8 °C 1029 hPa North 1.6 km/h 9.7 km/h 95 % 0 mm
21:50 5.5 °C 4.8 °C 1029 hPa NNE 1.6 km/h 12.9 km/h 95 % 0 mm
21:55 5.5 °C 4.8 °C 1029.3 hPa ENE 4.8 km/h 14.5 km/h 95 % 0 mm
22:00 5.5 °C 4.8 °C 1029.3 hPa NNW 4.8 km/h 14.5 km/h 95 % 0 mm
22:05 5.6 °C 4.9 °C 1029.3 hPa WNW 4.8 km/h 14.5 km/h 95 % 0 mm
22:10 5.5 °C 4.8 °C 1029.3 hPa NW 6.4 km/h 14.5 km/h 95 % 0 mm
22:15 5.6 °C 4.9 °C 1029.3 hPa NNE 9.7 km/h 14.5 km/h 95 % 0 mm
22:20 5.5 °C 4.8 °C 1029 hPa NNE 3.2 km/h 14.5 km/h 95 % 0 mm
22:25 5.5 °C 4.8 °C 1029 hPa North 4.8 km/h 20.9 km/h 95 % 0 mm
22:30 5.5 °C 4.8 °C 1029 hPa NNW 1.6 km/h 20.9 km/h 95 % 0 mm
22:35 5.5 °C 4.8 °C 1029 hPa NW 3.2 km/h 20.9 km/h 95 % 0 mm
22:40 5.6 °C 4.9 °C 1029 hPa NW 8 km/h 11.3 km/h 95 % 0 mm
22:45 5.6 °C 4.9 °C 1029 hPa NNE 6.4 km/h 19.3 km/h 95 % 0 mm
22:50 5.6 °C 4.9 °C 1029 hPa NW 1.6 km/h 19.3 km/h 95 % 0 mm
22:55 5.6 °C 4.7 °C 1029 hPa NNE 4.8 km/h 20.9 km/h 94 % 0 mm
23:00 5.6 °C 4.7 °C 1029.3 hPa NE 3.2 km/h 20.9 km/h 94 % 0 mm
23:05 5.6 °C 4.7 °C 1029.3 hPa NNW 4.8 km/h 20.9 km/h 94 % 0 mm
23:10 5.6 °C 4.7 °C 1029.3 hPa NNE 3.2 km/h 20.9 km/h 94 % 0 mm
23:15 5.7 °C 4.8 °C 1029.3 hPa NW 3.2 km/h 14.5 km/h 94 % 0 mm
23:20 5.7 °C 4.8 °C 1029.3 hPa North 3.2 km/h 14.5 km/h 94 % 0 mm
23:25 5.7 °C 4.8 °C 1029.3 hPa NNE 11.3 km/h 14.5 km/h 94 % 0 mm
23:30 5.7 °C 4.8 °C 1029.3 hPa NNE 11.3 km/h 12.9 km/h 94 % 0 mm
23:36 5.7 °C 4.8 °C 1029.3 hPa NE 1.6 km/h 14.5 km/h 94 % 0 mm
23:41 5.7 °C 4.8 °C 1029.3 hPa NW 4.8 km/h 14.5 km/h 94 % 0 mm
23:46 5.7 °C 4.8 °C 1029.3 hPa North 4.8 km/h 17.7 km/h 94 % 0 mm
23:51 5.7 °C 4.8 °C 1029.3 hPa NNW 6.4 km/h 17.7 km/h 94 % 0 mm
23:56 5.7 °C 4.8 °C 1029.3 hPa NNW 1.6 km/h 17.7 km/h 94 % 0 mm
Spring, Texas: Villages of Bridgestone
Compliments of Weather Underground - 3.25 mb

Script developed by  Jim McMurry - jmcmurry@mwt.net Adapted for the template by  Wim van der Kuil - Leuven-Template.eu

You find our weather info also at:

UK Metoffice

WeatherCloud

Weather Underground

Mid-South Weather Network

AWEKAS

Citizen Weather Observer Program (CWOP)

HAMweather, WeatherForYou, PWS Weather

Equipment we use:

Weather-station
Davis Vantage Vue

Weather-program
Meteohub

Weather-server
Debian 7.9 x86 (Guest)

Provider
DreamHost

Davis Vantage Vue

Meteohub

Debian 7.9 x86 (Guest)

DreamHost